Airfield :
LOGIN :

Register | Disclaimer

   EN    FR    IT 

 










Legend :    VFR   Marginal VFR   IFR   Intensive IFR   Very Intensive IFR
Visi :
Ceiling :
>= 8 km
>= 3000ft
5 to 8 km
1000 to 3000 ft
1500m to 5 km
500 to 1000 ft
800 to 1500m
200 to 500 ft
< 800m
< 200 ft
Symbols :   Thunderstorms  Fog  Heavy snow  Heavy precipitations  Wind > 20 kt
SIGMETs :     Misc.  Thunderstorms  Icing  Turbulence  Mountain Waves  Volcanic Ashes







- Airport Elevation : 755 ft
- IATA code : DRS


EDDC - Dresden Klotzsche

CURRENT METAR :
  • 120620Z 33007KT 300V360 5000 -SNRA SCT002 BKN003 01/01 Q1020 TEMPO BKN005

EXPIRED METARs :
  • 120550Z 33006KT 4200 -SNRA BKN003 01/01 Q1020 TEMPO 2000 -SN
  • 120520Z 33007KT 300V360 3600 -SNRA BKN002 01/01 Q1020 TEMPO 1200 -SN BKN001
  • 120450Z 32008KT 4000 -SNRA BKN002 01/01 Q1019 TEMPO 1200 -SN BKN001
  • 120420Z 32009KT 8000 BKN002 01/01 Q1019

TAF TAF EDDC
Valid from the 12 at 06:00 until the 13 at 06:00 UTC


120500Z 1206/1306 33007KT 9999 BKN005
TEMPO 1206/1212 3500 -SNRA BKN003
PROB30
TEMPO 1206/1210 1300 -SN BKN001
BECMG 1211/1213 03004KT
TEMPO 1217/1222 SCT008 BKN015
TEMPO 1300/1306 3500 BR BKN004
No reported NOTAMs for that airfield.



MET'MAP, your aeronautical weather chart ! - Copyright ORBIFLY December 2007 - Disclaimer

ORBIFLY MET'MAP TEAM :

Programming & Development : Alexandra Zaïnal
Concept & Development : Baudouin d'Aumeries
Co-Development & Prog : Marc-Olivier Méhu
Technical & hardware support : Manuel Goepfert

Contact : metmap@orbifly.com




SOURCES & CREDITS :

   NOAA